Time,TemperatureF,DewpointF,PressureIn,WindDirection,WindDirectionDegrees,WindSpeedMPH,WindSpeedGustMPH,Humidity,HourlyPrecipIn,Conditions,Clouds,dailyrainin,SoftwareType,DateUTC
2013-04-10 00:02:00,46.0,38.0,30.16,SW,221,5.0,7.0,73,0.00,,,0.00,,2013-04-10 07:02:00,
2013-04-10 00:11:00,46.0,38.0,30.16,SW,221,5.0,7.0,73,0.00,,,0.00,,2013-04-10 07:11:00,
2013-04-10 00:22:00,46.0,37.0,30.16,SW,231,5.0,9.0,71,0.00,,,0.00,,2013-04-10 07:22:00,
2013-04-10 00:32:00,46.0,37.0,30.16,SW,227,5.0,8.0,71,0.00,,,0.00,,2013-04-10 07:32:00,
2013-04-10 00:42:00,46.0,37.0,30.16,SW,227,5.0,8.0,71,0.00,,,0.00,,2013-04-10 07:42:00,
2013-04-10 00:52:00,46.0,39.0,30.15,SW,223,4.0,6.0,75,0.00,,,0.00,,2013-04-10 07:52:00,
2013-04-10 01:02:00,45.0,38.0,30.15,SW,220,3.0,5.0,77,0.00,,,0.00,,2013-04-10 08:02:00,
2013-04-10 01:11:00,45.0,38.0,30.15,SW,220,3.0,5.0,77,0.00,,,0.00,,2013-04-10 08:11:00,
2013-04-10 01:21:00,46.0,38.0,30.15,SW,217,4.0,7.0,73,0.00,,,0.00,,2013-04-10 08:21:00,
2013-04-10 01:32:00,45.0,37.0,30.14,WSW,247,3.0,6.0,74,0.00,,,0.00,,2013-04-10 08:32:00,
2013-04-10 01:42:00,45.0,37.0,30.14,WSW,247,3.0,6.0,74,0.00,,,0.00,,2013-04-10 08:42:00,
2013-04-10 01:51:00,45.0,38.0,30.14,SW,231,4.0,6.0,75,0.00,,,0.00,,2013-04-10 08:51:00,
2013-04-10 02:02:00,45.0,37.0,30.13,SW,233,3.0,5.0,73,0.00,,,0.00,,2013-04-10 09:02:00,
2013-04-10 02:12:00,45.0,37.0,30.13,WSW,241,3.0,5.0,74,0.00,,,0.00,,2013-04-10 09:12:00,
2013-04-10 02:22:00,45.0,37.0,30.13,WSW,241,3.0,5.0,74,0.00,,,0.00,,2013-04-10 09:22:00,
2013-04-10 02:32:00,45.0,37.0,30.12,SW,235,4.0,5.0,73,0.00,,,0.00,,2013-04-10 09:32:00,
2013-04-10 02:42:00,45.0,37.0,30.12,SW,235,4.0,5.0,73,0.00,,,0.00,,2013-04-10 09:42:00,
2013-04-10 02:52:00,44.0,37.0,30.11,SW,236,3.0,4.0,76,0.00,,,0.00,,2013-04-10 09:52:00,
2013-04-10 03:02:00,43.0,37.0,30.11,West,264,2.0,4.0,78,0.00,,,0.00,,2013-04-10 10:02:00,
2013-04-10 03:12:00,44.0,37.0,30.11,West,274,1.0,4.0,76,0.00,,,0.00,,2013-04-10 10:12:00,
2013-04-10 03:23:00,44.0,37.0,30.11,West,274,1.0,4.0,76,0.00,,,0.00,,2013-04-10 10:23:00,
2013-04-10 03:33:00,43.0,37.0,30.11,WNW,288,0.0,2.0,79,0.00,,,0.00,,2013-04-10 10:33:00,
2013-04-10 03:42:00,43.0,37.0,30.11,WNW,288,0.0,2.0,79,0.00,,,0.00,,2013-04-10 10:42:00,
2013-04-10 03:52:00,43.0,36.0,30.11,West,272,0.0,2.0,77,0.00,,,0.00,,2013-04-10 10:52:00,
2013-04-10 04:02:00,42.0,38.0,30.10,NW,309,0.0,1.0,84,0.00,,,0.00,,2013-04-10 11:02:00,
2013-04-10 04:12:00,42.0,38.0,30.10,NW,309,0.0,1.0,84,0.00,,,0.00,,2013-04-10 11:12:00,
2013-04-10 04:22:00,42.0,38.0,30.10,NW,309,0.0,1.0,85,0.00,,,0.00,,2013-04-10 11:22:00,
2013-04-10 04:32:00,42.0,37.0,30.09,NW,309,0.0,1.0,83,0.00,,,0.00,,2013-04-10 11:32:00,
2013-04-10 04:42:00,42.0,37.0,30.09,NW,309,0.0,1.0,83,0.00,,,0.00,,2013-04-10 11:42:00,
2013-04-10 04:52:00,42.0,38.0,30.08,WNW,284,1.0,2.0,86,0.00,,,0.00,,2013-04-10 11:52:00,
2013-04-10 05:02:00,42.0,38.0,30.09,WNW,285,0.0,0.0,87,0.00,,,0.00,,2013-04-10 12:02:00,
2013-04-10 05:12:00,42.0,38.0,30.09,WNW,285,0.0,0.0,87,0.00,,,0.00,,2013-04-10 12:12:00,
2013-04-10 05:22:00,42.0,38.0,30.08,WNW,301,1.0,2.0,84,0.00,,,0.00,,2013-04-10 12:22:00,
2013-04-10 05:32:00,42.0,38.0,30.07,NNE,30,1.0,3.0,87,0.00,,,0.00,,2013-04-10 12:32:00,
2013-04-10 05:42:00,42.0,38.0,30.07,NNE,30,1.0,3.0,87,0.00,,,0.00,,2013-04-10 12:42:00,
2013-04-10 05:52:00,42.0,39.0,30.06,NNW,344,0.0,2.0,88,0.00,,,0.00,,2013-04-10 12:52:00,
2013-04-10 06:02:00,42.0,39.0,30.03,NNW,336,0.0,1.0,88,0.00,,,0.00,,2013-04-10 13:02:00,
2013-04-10 06:12:00,42.0,39.0,30.03,NNW,336,0.0,1.0,88,0.00,,,0.00,,2013-04-10 13:12:00,
2013-04-10 06:22:00,42.0,38.0,30.06,NW,312,1.0,2.0,87,0.00,,,0.00,,2013-04-10 13:22:00,
2013-04-10 06:32:00,42.0,38.0,30.05,NW,312,1.0,2.0,85,0.00,,,0.00,,2013-04-10 13:32:00,
2013-04-10 06:42:00,42.0,38.0,30.05,NW,312,1.0,2.0,85,0.00,,,0.00,,2013-04-10 13:42:00,
2013-04-10 06:52:00,42.0,38.0,30.05,NW,313,0.0,1.0,86,0.00,,,0.00,,2013-04-10 13:52:00,
2013-04-10 07:02:00,42.0,38.0,30.04,NW,312,0.0,1.0,86,0.00,,,0.00,,2013-04-10 14:02:00,
2013-04-10 07:11:00,42.0,38.0,30.04,NW,312,0.0,1.0,86,0.00,,,0.00,,2013-04-10 14:11:00,
2013-04-10 07:22:00,42.0,38.0,30.03,NE,36,1.0,3.0,86,0.00,,,0.00,,2013-04-10 14:22:00,
2013-04-10 07:32:00,42.0,38.0,30.02,North,350,0.0,1.0,87,0.00,,,0.00,,2013-04-10 14:32:00,
2013-04-10 07:42:00,42.0,38.0,30.02,North,350,0.0,1.0,87,0.00,,,0.00,,2013-04-10 14:42:00,
2013-04-10 07:52:00,43.0,38.0,30.02,NW,320,0.0,1.0,84,0.00,,,0.00,,2013-04-10 14:52:00,
2013-04-10 08:02:00,44.0,38.0,30.01,SSE,161,0.0,4.0,80,0.00,,,0.00,,2013-04-10 15:02:00,
2013-04-10 08:11:00,44.0,38.0,30.01,SSE,161,0.0,4.0,80,0.00,,,0.00,,2013-04-10 15:11:00,
2013-04-10 08:22:00,45.0,38.0,30.00,SSW,194,3.0,5.0,77,0.00,,,0.00,,2013-04-10 15:22:00,
2013-04-10 08:32:00,45.0,38.0,30.00,SW,214,4.0,10.0,75,0.00,,,0.00,,2013-04-10 15:32:00,
2013-04-10 08:42:00,45.0,38.0,30.00,SW,214,4.0,10.0,75,0.00,,,0.00,,2013-04-10 15:42:00,
2013-04-10 08:52:00,46.0,38.0,30.00,SSW,211,6.0,10.0,73,0.00,,,0.00,,2013-04-10 15:52:00,
2013-04-10 09:02:00,46.0,38.0,29.98,SW,214,5.0,9.0,73,0.00,,,0.00,,2013-04-10 16:02:00,
2013-04-10 09:12:00,46.0,38.0,29.98,SW,214,5.0,9.0,73,0.00,,,0.00,,2013-04-10 16:12:00,
2013-04-10 09:22:00,46.0,37.0,29.97,SSE,157,3.0,9.0,72,0.00,,,0.00,,2013-04-10 16:22:00,
2013-04-10 09:32:00,47.0,38.0,29.96,SSE,151,4.0,9.0,72,0.00,,,0.00,,2013-04-10 16:32:00,
2013-04-10 09:42:00,47.0,38.0,29.96,SSE,151,4.0,9.0,72,0.00,,,0.00,,2013-04-10 16:42:00,
2013-04-10 09:52:00,47.0,37.0,29.95,SW,215,7.0,10.0,69,0.00,,,0.00,,2013-04-10 16:52:00,
2013-04-10 10:02:00,47.0,38.0,29.95,SW,215,5.0,9.0,71,0.00,,,0.00,,2013-04-10 17:02:00,
2013-04-10 10:12:00,47.0,38.0,29.93,SSW,203,5.0,10.0,71,0.00,,,0.00,,2013-04-10 17:12:00,
2013-04-10 10:22:00,47.0,38.0,29.93,SSW,203,5.0,10.0,71,0.00,,,0.00,,2013-04-10 17:22:00,
2013-04-10 10:33:00,47.0,38.0,29.92,SSW,203,5.0,8.0,70,0.00,,,0.00,,2013-04-10 17:33:00,
2013-04-10 10:42:00,47.0,38.0,29.92,SSW,203,5.0,8.0,70,0.00,,,0.00,,2013-04-10 17:42:00,
2013-04-10 10:52:00,48.0,39.0,29.91,SW,219,10.0,13.0,71,0.00,,,0.00,,2013-04-10 17:52:00,
2013-04-10 11:02:00,48.0,39.0,29.90,SSW,213,8.0,12.0,71,0.00,,,0.00,,2013-04-10 18:02:00,
2013-04-10 11:12:00,48.0,39.0,29.90,SSW,213,8.0,12.0,71,0.00,,,0.00,,2013-04-10 18:12:00,
2013-04-10 11:22:00,48.0,39.0,29.88,SSW,212,6.0,10.0,72,0.00,,,0.00,,2013-04-10 18:22:00,
2013-04-10 11:32:00,48.0,39.0,29.88,SSW,209,4.0,7.0,72,0.00,,,0.00,,2013-04-10 18:32:00,
2013-04-10 11:42:00,48.0,39.0,29.88,SSW,209,4.0,7.0,72,0.00,,,0.00,,2013-04-10 18:42:00,
2013-04-10 11:52:00,49.0,40.0,29.87,SSW,201,4.0,5.0,72,0.00,,,0.00,,2013-04-10 18:52:00,
2013-04-10 12:02:00,49.0,41.0,29.86,SSW,211,2.0,4.0,74,0.00,,,0.00,,2013-04-10 19:02:00,
2013-04-10 12:12:00,49.0,41.0,29.86,SSW,211,2.0,4.0,74,0.00,,,0.00,,2013-04-10 19:12:00,
2013-04-10 12:22:00,49.0,41.0,29.85,SSW,202,6.0,8.0,74,0.00,,,0.00,,2013-04-10 19:22:00,
2013-04-10 12:32:00,50.0,42.0,29.84,SW,222,9.0,13.0,74,0.00,,,0.00,,2013-04-10 19:32:00,
2013-04-10 12:42:00,50.0,42.0,29.84,SW,222,9.0,13.0,74,0.00,,,0.00,,2013-04-10 19:42:00,
2013-04-10 12:53:00,50.0,42.0,29.83,SSW,200,10.0,15.0,75,0.00,,,0.00,,2013-04-10 19:53:00,
2013-04-10 13:02:00,50.0,42.0,29.81,SSW,204,10.0,24.0,75,0.00,,,0.00,,2013-04-10 20:02:00,
2013-04-10 13:12:00,49.0,43.0,29.80,SW,215,9.0,14.0,81,0.01,,,0.01,,2013-04-10 20:12:00,
2013-04-10 13:22:00,49.0,43.0,29.80,SW,215,9.0,14.0,81,0.01,,,0.01,,2013-04-10 20:22:00,
2013-04-10 13:32:00,49.0,44.0,29.79,SSW,211,12.0,16.0,84,0.03,,,0.03,,2013-04-10 20:32:00,
2013-04-10 13:42:00,49.0,45.0,29.78,SSW,211,13.0,22.0,86,0.06,,,0.06,,2013-04-10 20:42:00,
2013-04-10 13:52:00,49.0,45.0,29.78,SSW,211,13.0,22.0,86,0.06,,,0.06,,2013-04-10 20:52:00,
2013-04-10 14:02:00,48.0,45.0,29.78,SW,228,7.0,14.0,89,0.08,,,0.08,,2013-04-10 21:02:00,
2013-04-10 14:12:00,48.0,45.0,29.78,SW,228,7.0,14.0,89,0.08,,,0.08,,2013-04-10 21:12:00,
2013-04-10 14:22:00,48.0,45.0,29.78,SW,227,8.0,15.0,91,0.08,,,0.09,,2013-04-10 21:22:00,
2013-04-10 14:32:00,48.0,46.0,29.77,SW,227,7.0,13.0,92,0.07,,,0.10,,2013-04-10 21:32:00,
2013-04-10 14:42:00,48.0,46.0,29.77,SW,227,7.0,13.0,92,0.07,,,0.10,,2013-04-10 21:42:00,
2013-04-10 14:53:00,49.0,46.0,29.76,SW,222,6.0,9.0,91,0.04,,,0.10,,2013-04-10 21:53:00,
2013-04-10 15:02:00,51.0,48.0,29.75,SSW,203,11.0,19.0,90,0.02,,,0.10,,2013-04-10 22:02:00,
2013-04-10 15:12:00,51.0,48.0,29.75,SSW,203,11.0,19.0,90,0.02,,,0.10,,2013-04-10 22:12:00,
2013-04-10 15:22:00,53.0,49.0,29.74,SSW,210,13.0,20.0,86,0.01,,,0.10,,2013-04-10 22:22:00,
2013-04-10 15:32:00,53.0,48.0,29.74,SW,217,8.0,15.0,83,0.00,,,0.10,,2013-04-10 22:32:00,
2013-04-10 15:42:00,53.0,48.0,29.74,SW,217,8.0,15.0,83,0.00,,,0.10,,2013-04-10 22:42:00,
2013-04-10 15:52:00,55.0,49.0,29.72,SW,227,8.0,12.0,80,0.00,,,0.10,,2013-04-10 22:52:00,
2013-04-10 16:02:00,55.0,47.0,29.72,NE,42,6.0,17.0,74,0.00,,,0.10,,2013-04-10 23:02:00,
2013-04-10 16:12:00,55.0,47.0,29.72,NE,42,6.0,17.0,74,0.00,,,0.10,,2013-04-10 23:12:00,
2013-04-10 16:22:00,53.0,47.0,29.72,SSW,197,6.0,17.0,80,0.02,,,0.12,,2013-04-10 23:22:00,
2013-04-10 16:32:00,56.0,47.0,29.72,North,351,3.0,11.0,73,0.02,,,0.12,,2013-04-10 23:32:00,
2013-04-10 16:42:00,56.0,47.0,29.72,North,351,3.0,11.0,73,0.02,,,0.12,,2013-04-10 23:42:00,
2013-04-10 16:52:00,57.0,46.0,29.73,NNW,331,2.0,13.0,66,0.02,,,0.12,,2013-04-10 23:52:00,
2013-04-10 17:01:00,57.0,44.0,29.73,NNW,332,4.0,9.0,62,0.01,,,0.12,,2013-04-11 00:01:00,
2013-04-10 17:11:00,57.0,44.0,29.73,NNW,332,4.0,9.0,62,0.01,,,0.12,,2013-04-11 00:11:00,
2013-04-10 17:22:00,57.0,43.0,29.74,WSW,248,6.0,14.0,59,0.00,,,0.12,,2013-04-11 00:22:00,
2013-04-10 17:32:00,56.0,41.0,29.74,SW,217,10.0,22.0,57,0.00,,,0.12,,2013-04-11 00:32:00,
2013-04-10 17:42:00,56.0,41.0,29.74,SW,217,10.0,22.0,57,0.00,,,0.12,,2013-04-11 00:42:00,
2013-04-10 17:52:00,56.0,40.0,29.75,SSW,198,8.0,15.0,54,0.00,,,0.12,,2013-04-11 00:52:00,
2013-04-10 18:02:00,57.0,41.0,29.74,SSW,203,3.0,15.0,54,0.00,,,0.12,,2013-04-11 01:02:00,
2013-04-10 18:12:00,57.0,41.0,29.74,SSW,203,3.0,15.0,54,0.00,,,0.12,,2013-04-11 01:12:00,
2013-04-10 18:22:00,57.0,41.0,29.75,SSW,210,11.0,19.0,56,0.00,,,0.12,,2013-04-11 01:22:00,
2013-04-10 18:32:00,56.0,40.0,29.77,SSW,200,7.0,19.0,55,0.00,,,0.12,,2013-04-11 01:32:00,
2013-04-10 18:42:00,56.0,40.0,29.77,SSW,200,7.0,19.0,55,0.00,,,0.12,,2013-04-11 01:42:00,
2013-04-10 18:52:00,55.0,41.0,29.79,North,11,3.0,9.0,59,0.00,,,0.12,,2013-04-11 01:52:00,
2013-04-10 19:02:00,49.0,41.0,29.82,NNW,330,3.0,9.0,75,0.00,,,0.12,,2013-04-11 02:02:00,
2013-04-10 19:12:00,49.0,42.0,29.81,West,281,2.0,12.0,77,0.02,,,0.14,,2013-04-11 02:12:00,
2013-04-10 19:22:00,49.0,42.0,29.81,West,281,2.0,12.0,77,0.02,,,0.14,,2013-04-11 02:22:00,
2013-04-10 19:31:00,49.0,41.0,29.82,North,354,2.0,9.0,74,0.02,,,0.14,,2013-04-11 02:31:00,
2013-04-10 19:42:00,49.0,41.0,29.82,North,354,2.0,9.0,74,0.02,,,0.14,,2013-04-11 02:42:00,
2013-04-10 19:52:00,50.0,42.0,29.83,WSW,250,1.0,5.0,74,0.02,,,0.14,,2013-04-11 02:52:00,
2013-04-10 20:01:00,48.0,41.0,29.85,NW,312,1.0,3.0,77,0.02,,,0.14,,2013-04-11 03:01:00,
2013-04-10 20:12:00,48.0,41.0,29.85,NW,312,1.0,3.0,77,0.02,,,0.14,,2013-04-11 03:12:00,
2013-04-10 20:22:00,46.0,41.0,29.85,West,280,2.0,3.0,83,0.00,,,0.14,,2013-04-11 03:22:00,
2013-04-10 20:33:00,46.0,41.0,29.86,NW,305,1.0,3.0,84,0.00,,,0.14,,2013-04-11 03:33:00,
2013-04-10 20:42:00,46.0,41.0,29.86,NW,305,1.0,3.0,84,0.00,,,0.14,,2013-04-11 03:42:00,
2013-04-10 20:53:00,46.0,41.0,29.86,NW,305,1.0,3.0,84,0.00,,,0.14,,2013-04-11 03:53:00,
2013-04-10 21:03:00,46.0,41.0,29.87,NW,324,2.0,4.0,84,0.00,,,0.14,,2013-04-11 04:03:00,
2013-04-10 21:12:00,45.0,41.0,29.90,North,8,2.0,4.0,85,0.00,,,0.14,,2013-04-11 04:12:00,
2013-04-10 21:22:00,45.0,41.0,29.90,North,8,2.0,4.0,85,0.00,,,0.14,,2013-04-11 04:22:00,
2013-04-10 21:33:00,43.0,40.0,29.91,West,260,1.0,7.0,88,0.00,,,0.14,,2013-04-11 04:33:00,
2013-04-10 21:42:00,43.0,40.0,29.91,West,260,1.0,7.0,88,0.00,,,0.14,,2013-04-11 04:42:00,
2013-04-10 21:52:00,42.0,40.0,29.92,West,272,1.0,1.0,92,0.00,,,0.14,,2013-04-11 04:52:00,
2013-04-10 22:02:00,42.0,40.0,29.92,West,276,1.0,2.0,92,0.00,,,0.14,,2013-04-11 05:02:00,
2013-04-10 22:12:00,42.0,40.0,29.92,West,276,1.0,2.0,92,0.00,,,0.14,,2013-04-11 05:12:00,
2013-04-10 22:22:00,40.0,38.0,29.92,West,269,1.0,3.0,92,0.00,,,0.14,,2013-04-11 05:22:00,
2013-04-10 22:32:00,41.0,40.0,29.92,West,277,0.0,2.0,95,0.00,,,0.14,,2013-04-11 05:32:00,
2013-04-10 22:42:00,41.0,40.0,29.92,West,277,0.0,2.0,95,0.00,,,0.14,,2013-04-11 05:42:00,
2013-04-10 22:52:00,42.0,40.0,29.93,ENE,61,1.0,3.0,93,0.00,,,0.14,,2013-04-11 05:52:00,
2013-04-10 23:02:00,41.0,39.0,29.93,West,274,0.0,2.0,93,0.00,,,0.14,,2013-04-11 06:02:00,
2013-04-10 23:12:00,41.0,39.0,29.93,West,274,0.0,2.0,93,0.00,,,0.14,,2013-04-11 06:12:00,
2013-04-10 23:21:00,40.0,38.0,29.94,West,279,1.0,5.0,92,0.00,,,0.14,,2013-04-11 06:21:00,
2013-04-10 23:32:00,40.0,38.0,29.95,NW,311,0.0,-999.0,94,-99.99,,,-99.99,,2013-04-11 06:32:00,
2013-04-10 23:42:00,40.0,38.0,29.95,NW,311,0.0,-999.0,94,-99.99,,,-99.99,,2013-04-11 06:42:00,
2013-04-10 23:52:00,38.0,35.0,29.95,SE,132,0.0,3.0,90,0.00,,,0.14,,2013-04-11 06:52:00,